NCAR-RAP Real-Time Weather Data

Output produced by METARs form (10 April 2020  06:47 UTC)
found at http://weather.rap.ucar.edu/surface/
 
KDVN 100552Z AUTO 29011KT 10SM CLR 00/M06 A3008 RMK AO2 SLP189 T00001056 10044 21006 401001006 53014
KDVN 100452Z AUTO 28011KT 10SM CLR 00/M06 A3007 RMK AO2 SLP183 T00001056
KDVN 100352Z AUTO 29010KT 10SM CLR 01/M06 A3006 RMK AO2 SLP179 T00111061
KDVN 100252Z AUTO 32013KT 10SM CLR 02/M07 A3004 RMK AO2 SLP175 T00171067 51029
KDVN 100152Z AUTO 31014G24KT 10SM CLR 02/M07 A3001 RMK AO2 PK WND 31027/0056 SLP166 T00221067
KDVN 100052Z AUTO 30020G30KT 10SM SCT055 03/M08 A2998 RMK AO2 PK WND 31033/2357 SLP155 T00331078
KDVN 092352Z AUTO 31021G34KT 10SM FEW065 SCT080 04/M08 A2995 RMK AO2 PK WND 30040/2334 SLP145 60000 T00441083 10100 20039 53019
KDVN 092252Z AUTO 30018G42KT 10SM SCT047 BKN055 BKN070 04/M06 A2993 RMK AO2 PK WND 31042/2244 RAB40E47 SLP138 P0000 T00391056
KDVN 092152Z AUTO 32029G43KT 10SM SCT070 07/M08 A2989 RMK AO2 PK WND 32043/2119 RAE2055 SLP125 P0000 T00671078
KDVN 092052Z AUTO 30024G35KT 8SM -RA SCT040 BKN050 BKN075 06/M02 A2989 RMK AO2 PK WND 32047/2039 RAB1959E10B43 SLP124 P0000 60000 T00561022 53011
KDVN 091952Z AUTO 29021G32KT 10SM SCT046 SCT055 BKN085 09/M04 A2986 RMK AO2 PK WND 32037/1857 RAB08E17 SLP112 P0000 T00891039
KDVN 091852Z AUTO 31023G33KT 10SM FEW043 SCT060 BKN080 07/M03 A2988 RMK AO2 PK WND 33040/1827 WSHFT 1815 RAB28E41 SLP117 P0000 T00671028
KDVN 091835Z AUTO 32024G40KT 10SM -RA SCT040 SCT050 OVC065 07/M02 A2988 RMK AO2 PK WND 33040/1827 WSHFT 1815 RAB28 P0000 T00671017
KDVN 091752Z AUTO 29022G31KT 10SM BKN065 09/M06 A2986 RMK AO2 PK WND 29038/1734 SLP111 T00891061 10100 20017 58010
KDVN 091652Z AUTO 29020G29KT 10SM FEW055 SCT070 BKN090 08/M06 A2987 RMK AO2 PK WND 30033/1600 SLP115 T00831056
KDVN 091552Z AUTO 29022G30KT 10SM FEW043 FEW050 09/M03 A2988 RMK AO2 PK WND 29030/1552 SLP119 T00941033
KDVN 091452Z AUTO 29016KT 10SM CLR 06/M03 A2989 RMK AO2 SLP122 T00611033 58013
KDVN 091352Z AUTO 30015KT 10SM CLR 05/M03 A2991 RMK AO2 SLP128 T00501033
KDVN 091252Z AUTO 29012KT 10SM CLR 04/M03 A2992 RMK AO2 SLP133 T00391028
KDVN 091152Z AUTO 27011KT 10SM CLR 02/M04 A2993 RMK AO2 SLP136 T00171039 10061 20017 53005 $
KDVN 091052Z AUTO 27010KT 10SM CLR 02/M04 A2992 RMK AO2 SLP132 T00221039 $
KDVN 090952Z AUTO 29011KT 10SM CLR 03/M04 A2991 RMK AO2 SLP128 T00281044 $
KDVN 090852Z AUTO 30014KT 10SM CLR 04/M04 A2991 RMK AO2 PK WND 31026/0759 SLP128 T00391044 51012 $
KDVN 090752Z AUTO 30015KT 10SM CLR 05/M03 A2991 RMK AO2 SLP124 T00501028 $